Time;durP1;ratioP1;P1;durP2;ratioP2;P2;SDS_P1;SDS_P2;PMS_P1;PMS_P2;Temp;Humidity;BMP_temperature;BMP_pressure;BME280_temperature;BME280_humidity;BME280_pressure;Samples;Min_cycle;Max_cycle;Signal;HPM_P1;HPM_P2
2022/02/28 00:00:04;;;;;;;;;;;;;;;14.00;58.23;101651.66;5014176;28;1076;-33
2022/02/28 00:02:32;;;;;;;;;;;;;;;13.98;58.77;101650.88;5013678;28;1968;-33
2022/02/28 00:04:58;;;;;;;;;;;;;;;14.02;58.70;101657.75;5013862;28;1085;-33
2022/02/28 00:07:26;;;;;;;;;;;;;;;14.02;58.70;101663.91;5013848;28;1116;-33
2022/02/28 00:09:52;;;;;;;;;;;;;;;13.99;58.25;101655.28;5014035;28;1069;-33
2022/02/28 00:12:18;;;;;;;;;;;;;;;14.01;58.48;101667.53;5013760;28;1163;-33
2022/02/28 00:14:45;;;;;;;;;;;;;;;14.01;58.50;101658.72;5013764;28;1156;-33
2022/02/28 00:17:11;;;;;;;;;;;;;;;13.94;58.54;101655.50;5013714;28;1084;-33
2022/02/28 00:19:40;;;;;;;;;;;;;;;14.01;58.68;101656.06;5013667;28;1088;-33
2022/02/28 00:22:06;;;;;;;;;;;;;;;14.00;58.71;101664.94;5013883;28;1914;-33
2022/02/28 00:24:33;;;;;;;;;;;;;;;13.98;58.77;101662.38;5013637;28;1104;-33
2022/02/28 00:26:59;;;;;;;;;;;;;;;13.95;58.79;101651.91;5014370;28;1958;-33
2022/02/28 00:29:26;;;;;;;;;;;;;;;13.96;58.14;101660.72;5014012;28;1082;-33
2022/02/28 00:31:52;;;;;;;;;;;;;;;13.93;58.23;101649.31;5013766;28;1086;-33
2022/02/28 00:34:18;;;;;;;;;;;;;;;13.95;58.92;101651.03;5013843;28;1078;-33
2022/02/28 00:36:46;;;;;;;;;;;;;;;13.96;58.86;101648.28;5013823;28;989;-33
2022/02/28 00:39:13;;;;;;;;;;;;;;;13.94;58.37;101639.53;5013804;28;1020;-33
2022/02/28 00:41:39;;;;;;;;;;;;;;;13.93;58.81;101644.00;5013709;28;1902;-33
2022/02/28 00:44:06;;;;;;;;;;;;;;;13.96;58.23;101644.78;5013860;28;1004;-33
2022/02/28 00:46:32;;;;;;;;;;;;;;;13.96;58.98;101632.34;5013729;28;996;-33
2022/02/28 00:48:59;;;;;;;;;;;;;;;13.88;59.18;101639.88;5013722;28;1032;-33
2022/02/28 00:51:25;;;;;;;;;;;;;;;13.96;58.60;101652.75;5013705;28;1078;-33
2022/02/28 00:53:53;;;;;;;;;;;;;;;13.89;58.48;101630.97;5014632;28;1085;-33
2022/02/28 00:56:19;;;;;;;;;;;;;;;13.93;58.66;101632.53;5017492;28;1046;-33
2022/02/28 00:58:46;;;;;;;;;;;;;;;13.96;58.44;101626.16;5017563;28;996;-33
2022/02/28 01:01:12;;;;;;;;;;;;;;;13.96;58.67;101634.16;5017158;28;1906;-33
2022/02/28 01:03:39;;;;;;;;;;;;;;;13.98;58.83;101629.59;5017369;28;1032;-33
2022/02/28 01:06:05;;;;;;;;;;;;;;;13.99;58.74;101641.97;5017414;28;1008;-33
2022/02/28 01:08:31;;;;;;;;;;;;;;;13.92;58.63;101642.28;5017229;28;1009;-33
2022/02/28 01:10:59;;;;;;;;;;;;;;;13.96;58.96;101628.81;5016991;28;1124;-33
2022/02/28 01:13:26;;;;;;;;;;;;;;;13.95;58.87;101635.94;5017262;28;1008;-33
2022/02/28 01:15:52;;;;;;;;;;;;;;;13.91;58.93;101618.44;5016930;28;1084;-33
2022/02/28 01:18:19;;;;;;;;;;;;;;;13.90;58.91;101625.53;5016837;28;944;-33
2022/02/28 01:20:45;;;;;;;;;;;;;;;13.96;58.85;101636.81;5016712;28;1910;-33
2022/02/28 01:23:12;;;;;;;;;;;;;;;13.89;58.53;101621.19;5017088;28;1083;-33
2022/02/28 01:25:38;;;;;;;;;;;;;;;13.98;58.73;101634.91;5016750;28;1072;-33
2022/02/28 01:28:06;;;;;;;;;;;;;;;13.95;58.39;101624.44;5016740;28;1084;-33
2022/02/28 01:30:32;;;;;;;;;;;;;;;13.96;57.96;101637.66;5016943;28;1019;-33
2022/02/28 01:32:59;;;;;;;;;;;;;;;13.88;58.57;101618.59;5016523;28;1179;-34
2022/02/28 01:35:25;;;;;;;;;;;;;;;13.96;58.83;101640.31;5016489;28;1270;-33
2022/02/28 01:37:52;;;;;;;;;;;;;;;13.93;58.66;101633.38;5016794;28;1013;-33
2022/02/28 01:40:18;;;;;;;;;;;;;;;13.91;58.58;101624.63;5016770;28;1230;-33
2022/02/28 01:42:45;;;;;;;;;;;;;;;13.90;58.60;101614.91;5016677;28;1906;-33
2022/02/28 01:45:13;;;;;;;;;;;;;;;13.93;58.10;101621.88;5016372;28;1167;-34
2022/02/28 01:47:40;;;;;;;;;;;;;;;13.92;58.86;101634.28;5016634;28;1071;-33
2022/02/28 01:50:07;;;;;;;;;;;;;;;13.90;58.57;101619.38;5016614;28;1083;-33
2022/02/28 01:52:34;;;;;;;;;;;;;;;13.88;58.55;101608.81;5016260;28;1081;-33
2022/02/28 01:55:00;;;;;;;;;;;;;;;13.94;59.04;101618.25;5016462;28;1182;-33
2022/02/28 01:57:27;;;;;;;;;;;;;;;13.87;58.13;101615.09;5016464;28;1062;-33
2022/02/28 01:59:53;;;;;;;;;;;;;;;13.83;58.84;101596.72;5016094;28;1139;-33
2022/02/28 02:02:21;;;;;;;;;;;;;;;13.88;58.17;101611.47;5015891;28;2017;-33
2022/02/28 02:04:49;;;;;;;;;;;;;;;13.92;58.12;101626.31;5015909;28;1087;-33
2022/02/28 02:07:16;;;;;;;;;;;;;;;13.88;59.09;101615.94;5015591;28;1005;-33
2022/02/28 02:09:42;;;;;;;;;;;;;;;13.84;58.72;101607.25;5015898;28;1088;-33
2022/02/28 02:12:09;;;;;;;;;;;;;;;13.91;58.79;101616.63;5015877;28;1156;-33
2022/02/28 02:14:36;;;;;;;;;;;;;;;13.91;58.52;101608.66;5016104;28;1008;-33
2022/02/28 02:17:03;;;;;;;;;;;;;;;13.89;58.97;101607.03;5016084;28;1031;-33
2022/02/28 02:19:32;;;;;;;;;;;;;;;13.86;59.17;101607.19;5016034;28;1032;-33
2022/02/28 02:22:00;;;;;;;;;;;;;;;13.89;58.81;101597.25;5015934;28;1910;-33
2022/02/28 02:24:26;;;;;;;;;;;;;;;13.87;58.15;101600.94;5015670;28;1116;-33
2022/02/28 02:26:53;;;;;;;;;;;;;;;13.90;58.82;101601.59;5015898;28;1000;-33
2022/02/28 02:29:19;;;;;;;;;;;;;;;13.87;58.47;101585.84;5015543;28;1151;-33
2022/02/28 02:31:46;;;;;;;;;;;;;;;13.85;58.60;101593.03;5015758;28;1031;-33
2022/02/28 02:34:12;;;;;;;;;;;;;;;13.86;58.61;101589.41;5015470;28;1080;-33
2022/02/28 02:36:40;;;;;;;;;;;;;;;13.82;57.73;101571.91;5015374;28;1222;-33
2022/02/28 02:39:08;;;;;;;;;;;;;;;13.88;58.57;101584.03;5015655;28;1020;-33
2022/02/28 02:41:34;;;;;;;;;;;;;;;13.85;58.64;101589.53;5015241;28;1906;-33
2022/02/28 02:44:01;;;;;;;;;;;;;;;13.85;58.09;101578.91;5015330;28;1084;-33
2022/02/28 02:46:27;;;;;;;;;;;;;;;13.89;59.08;101583.09;5015533;28;996;-33
2022/02/28 02:48:54;;;;;;;;;;;;;;;13.82;58.26;101571.91;5015503;28;1043;-33
2022/02/28 02:51:21;;;;;;;;;;;;;;;13.83;58.56;101573.66;5015432;28;1083;-33
2022/02/28 02:53:47;;;;;;;;;;;;;;;13.81;58.89;101580.84;5015435;28;1064;-33
2022/02/28 02:56:15;;;;;;;;;;;;;;;13.85;58.48;101593.03;5015377;28;1060;-33
2022/02/28 02:58:42;;;;;;;;;;;;;;;13.88;57.97;101582.22;5014977;28;1139;-33
2022/02/28 03:01:21;;;;;;;;;;;;;;;13.86;58.17;101576.13;5118686;23;3604;-33
2022/02/28 03:03:48;;;;;;;;;;;;;;;13.88;58.71;101587.53;5014938;28;1075;-32
2022/02/28 03:06:14;;;;;;;;;;;;;;;13.86;58.10;101586.75;5015333;28;1083;-32
2022/02/28 03:08:41;;;;;;;;;;;;;;;13.85;57.83;101571.75;5014816;28;1087;-32
2022/02/28 03:11:07;;;;;;;;;;;;;;;13.89;57.77;101589.28;5014814;28;1139;-32
2022/02/28 03:13:35;;;;;;;;;;;;;;;13.87;58.59;101580.53;5015102;28;1007;-32
2022/02/28 03:16:02;;;;;;;;;;;;;;;13.85;58.33;101577.09;5015309;28;1082;-32
2022/02/28 03:18:28;;;;;;;;;;;;;;;13.85;58.21;101582.41;5014862;28;1081;-32
2022/02/28 03:20:54;;;;;;;;;;;;;;;13.82;58.64;101579.03;5014918;28;1007;-32
2022/02/28 03:23:21;;;;;;;;;;;;;;;13.84;59.10;101575.34;5014816;28;1973;-32
2022/02/28 03:25:47;;;;;;;;;;;;;;;13.82;58.80;101566.59;5015126;28;1040;-33
2022/02/28 03:28:15;;;;;;;;;;;;;;;13.83;58.53;101578.97;5014761;28;1015;-32
2022/02/28 03:30:43;;;;;;;;;;;;;;;13.79;58.55;101563.28;5014765;28;1023;-32
2022/02/28 03:33:10;;;;;;;;;;;;;;;13.83;59.00;101589.59;5015201;28;1092;-33
2022/02/28 03:35:36;;;;;;;;;;;;;;;13.84;58.74;101583.31;5014687;28;1023;-33
2022/02/28 03:38:03;;;;;;;;;;;;;;;13.81;58.65;101583.50;5014662;28;1079;-32
2022/02/28 03:40:30;;;;;;;;;;;;;;;13.76;58.50;101572.25;5014305;28;1136;-33
2022/02/28 03:42:59;;;;;;;;;;;;;;;13.76;58.87;101566.94;5014558;28;1969;-32
2022/02/28 03:45:25;;;;;;;;;;;;;;;13.85;58.04;101577.09;5014489;28;1055;-33
2022/02/28 03:47:53;;;;;;;;;;;;;;;13.79;58.55;101577.41;5014501;28;1078;-32
2022/02/28 03:50:20;;;;;;;;;;;;;;;13.79;58.84;101576.56;5014147;28;1075;-32
2022/02/28 03:52:46;;;;;;;;;;;;;;;13.78;58.95;101567.72;5014115;28;1083;-32
2022/02/28 03:55:13;;;;;;;;;;;;;;;13.80;58.69;101573.81;5014035;28;1136;-32
2022/02/28 03:57:39;;;;;;;;;;;;;;;13.81;58.26;101580.84;5014039;28;1083;-32
2022/02/28 04:00:07;;;;;;;;;;;;;;;13.79;58.84;101561.47;5013979;28;1138;-33
2022/02/28 04:02:33;;;;;;;;;;;;;;;13.82;58.08;101574.56;5013573;28;1977;-32
2022/02/28 04:05:01;;;;;;;;;;;;;;;13.81;58.73;101564.06;5014067;28;1121;-32
2022/02/28 04:07:27;;;;;;;;;;;;;;;13.76;58.65;101566.94;5013819;28;1091;-33
2022/02/28 04:09:54;;;;;;;;;;;;;;;13.78;58.15;101565.03;5014151;28;1092;-33
2022/02/28 04:12:20;;;;;;;;;;;;;;;13.75;58.40;101567.88;5013845;28;1087;-32
2022/02/28 04:14:47;;;;;;;;;;;;;;;13.78;58.58;101565.03;5013787;28;1103;-32
2022/02/28 04:17:13;;;;;;;;;;;;;;;13.79;58.41;101580.06;5014039;28;1062;-33
2022/02/28 04:19:40;;;;;;;;;;;;;;;13.78;58.86;101570.38;5014032;28;1004;-32
2022/02/28 04:22:14;;;;;;;;;;;;;;;13.80;58.80;101578.25;5013958;28;1906;-32
2022/02/28 04:24:48;;;;;;;;;;;;;;;13.75;58.38;101575.88;5014015;28;1027;-32
2022/02/28 04:27:14;;;;;;;;;;;;;;;13.73;58.84;101572.44;5013676;28;1007;-32
2022/02/28 04:29:41;;;;;;;;;;;;;;;13.77;58.55;101587.28;5013333;28;1035;-33
2022/02/28 04:32:07;;;;;;;;;;;;;;;13.78;58.93;101570.38;5013908;28;1059;-32
2022/02/28 04:34:34;;;;;;;;;;;;;;;13.79;58.21;101572.09;5013603;28;1158;-32
2022/02/28 04:37:01;;;;;;;;;;;;;;;13.82;59.06;101582.56;5013886;28;1007;-32
2022/02/28 04:39:28;;;;;;;;;;;;;;;13.80;58.91;101580.94;5013827;28;1067;-33
2022/02/28 04:41:55;;;;;;;;;;;;;;;13.77;57.94;101571.31;5013367;28;1910;-32
2022/02/28 04:44:21;;;;;;;;;;;;;;;13.78;58.78;101580.16;5013900;28;1032;-32
2022/02/28 04:46:48;;;;;;;;;;;;;;;13.78;58.10;101580.16;5013813;28;1074;-32
2022/02/28 04:49:14;;;;;;;;;;;;;;;13.78;58.26;101572.19;5013796;28;1082;-32
2022/02/28 04:51:41;;;;;;;;;;;;;;;13.81;57.61;101582.66;5013771;28;1077;-32
2022/02/28 04:54:07;;;;;;;;;;;;;;;13.77;57.86;101583.72;5013688;28;1068;-32
2022/02/28 04:56:35;;;;;;;;;;;;;;;13.79;58.85;101582.72;5013698;28;1003;-32
2022/02/28 04:59:01;;;;;;;;;;;;;;;13.78;58.12;101580.16;5013730;28;1054;-32
2022/02/28 05:01:28;;;;;;;;;;;;;;;13.73;58.13;101583.06;5012940;28;1345;-33
2022/02/28 05:03:54;;;;;;;;;;;;;;;13.75;58.22;101591.81;5013303;28;2056;-33
2022/02/28 05:06:21;;;;;;;;;;;;;;;13.74;58.21;101582.09;5013288;28;1107;-32
2022/02/28 05:08:48;;;;;;;;;;;;;;;13.76;58.88;101597.97;5013642;28;1035;-32
2022/02/28 05:11:14;;;;;;;;;;;;;;;13.70;58.72;101577.88;5013591;28;1003;-32
2022/02/28 05:13:42;;;;;;;;;;;;;;;13.77;58.11;101597.91;5013548;28;1086;-32
2022/02/28 05:16:09;;;;;;;;;;;;;;;13.75;58.32;101597.13;5013540;28;1039;-33
2022/02/28 05:18:36;;;;;;;;;;;;;;;13.71;58.50;101601.75;5013559;28;1031;-32
2022/02/28 05:21:02;;;;;;;;;;;;;;;13.74;58.11;101598.06;5013516;28;1089;-33
2022/02/28 05:23:29;;;;;;;;;;;;;;;13.79;58.28;101601.34;5013646;28;1906;-32
2022/02/28 05:25:55;;;;;;;;;;;;;;;13.72;57.93;101602.59;5013469;28;1007;-32
2022/02/28 05:28:22;;;;;;;;;;;;;;;13.73;57.87;101604.31;5013597;28;1003;-32
2022/02/28 05:30:50;;;;;;;;;;;;;;;13.76;58.46;101612.13;5013411;28;1087;-32
2022/02/28 05:33:17;;;;;;;;;;;;;;;13.77;58.09;101611.19;5013074;28;1064;-32
2022/02/28 05:35:43;;;;;;;;;;;;;;;13.77;58.73;101612.97;5013264;28;996;-32
2022/02/28 05:38:10;;;;;;;;;;;;;;;13.72;58.06;101597.28;5014017;28;995;-32
2022/02/28 05:40:37;;;;;;;;;;;;;;;13.69;58.38;101605.44;5013647;28;1959;-32
2022/02/28 05:43:03;;;;;;;;;;;;;;;13.71;58.15;101612.38;5016711;28;1973;-32
2022/02/28 05:45:29;;;;;;;;;;;;;;;13.71;58.05;101611.53;5016433;28;1080;-32
2022/02/28 05:47:57;;;;;;;;;;;;;;;13.71;58.29;101616.84;5016410;28;1080;-32
2022/02/28 05:50:24;;;;;;;;;;;;;;;13.70;58.01;101605.31;5016314;28;1072;-33
2022/02/28 05:52:50;;;;;;;;;;;;;;;13.70;57.95;101600.00;5016231;28;1160;-32
2022/02/28 05:55:17;;;;;;;;;;;;;;;13.76;58.11;101625.41;5016561;28;1049;-32
2022/02/28 05:57:43;;;;;;;;;;;;;;;13.69;58.21;101614.25;5016196;28;955;-32
2022/02/28 06:00:10;;;;;;;;;;;;;;;13.70;58.24;101625.75;5016144;28;1147;-32
2022/02/28 06:02:37;;;;;;;;;;;;;;;13.70;57.98;101626.59;5015755;28;1991;-33
2022/02/28 06:05:05;;;;;;;;;;;;;;;13.70;58.54;101618.63;5016638;28;1093;-32
2022/02/28 06:07:32;;;;;;;;;;;;;;;13.72;58.20;101635.34;5016344;28;1003;-32
2022/02/28 06:09:58;;;;;;;;;;;;;;;13.74;58.59;101629.94;5016229;28;1073;-32
2022/02/28 06:12:24;;;;;;;;;;;;;;;13.72;58.31;101635.34;5015932;28;1151;-32
2022/02/28 06:14:51;;;;;;;;;;;;;;;13.74;57.99;101643.25;5015858;28;1131;-33
2022/02/28 06:17:17;;;;;;;;;;;;;;;13.74;58.58;101629.94;5016053;28;1047;-32
2022/02/28 06:19:46;;;;;;;;;;;;;;;13.72;57.96;101634.50;5016117;28;1184;-32
2022/02/28 06:22:14;;;;;;;;;;;;;;;13.70;57.88;101625.75;5016053;28;1004;-32
2022/02/28 06:24:41;;;;;;;;;;;;;;;13.67;57.83;101628.56;5016219;28;1942;-32
2022/02/28 06:27:07;;;;;;;;;;;;;;;13.70;58.37;101639.03;5016163;28;1051;-32
2022/02/28 06:29:34;;;;;;;;;;;;;;;13.69;58.69;101646.16;5015870;28;1248;-32
2022/02/28 06:32:00;;;;;;;;;;;;;;;13.70;58.16;101647.00;5015868;28;1016;-32
2022/02/28 06:34:31;;;;;;;;;;;;;;;13.65;58.02;101641.94;5015809;28;1082;-32
2022/02/28 06:36:57;;;;;;;;;;;;;;;13.68;58.03;101647.06;5015753;28;1078;-32
2022/02/28 06:39:25;;;;;;;;;;;;;;;13.69;58.19;101654.13;5015977;28;1082;-32
2022/02/28 06:41:52;;;;;;;;;;;;;;;13.68;58.56;101655.03;5015734;28;1000;-32
2022/02/28 06:44:19;;;;;;;;;;;;;;;13.69;57.99;101651.47;5015261;28;1906;-32
2022/02/28 06:46:45;;;;;;;;;;;;;;;13.68;57.80;101654.19;5015312;28;1079;-32
2022/02/28 06:49:12;;;;;;;;;;;;;;;13.68;58.43;101657.69;5015582;28;1082;-32
2022/02/28 06:51:38;;;;;;;;;;;;;;;13.67;58.03;101660.47;5014755;28;1095;-32
2022/02/28 06:54:05;;;;;;;;;;;;;;;13.67;58.15;101663.97;5014986;28;1093;-32
2022/02/28 06:56:33;;;;;;;;;;;;;;;13.66;58.16;101667.56;5015375;28;1089;-32
2022/02/28 06:58:59;;;;;;;;;;;;;;;13.64;58.39;101665.91;5015015;28;1013;-32
2022/02/28 07:01:25;;;;;;;;;;;;;;;13.64;58.11;101666.78;5014578;28;1410;-32
2022/02/28 07:03:52;;;;;;;;;;;;;;;13.72;58.23;101679.69;5015254;28;1906;-32
2022/02/28 07:06:22;;;;;;;;;;;;;;;13.68;57.96;101680.78;5015233;28;1081;-32
2022/02/28 07:08:48;;;;;;;;;;;;;;;13.66;58.48;101683.50;5014908;28;1088;-32
2022/02/28 07:11:15;;;;;;;;;;;;;;;13.69;58.25;101679.84;5015215;28;1063;-32
2022/02/28 07:13:43;;;;;;;;;;;;;;;13.64;58.46;101684.53;5014778;28;1076;-32
2022/02/28 07:16:10;;;;;;;;;;;;;;;13.65;58.19;101675.63;5015041;28;1090;-32
2022/02/28 07:18:36;;;;;;;;;;;;;;;13.65;58.02;101678.28;5014957;28;1086;-32
2022/02/28 07:21:03;;;;;;;;;;;;;;;13.67;58.00;101679.06;5014976;28;1020;-32
2022/02/28 07:23:29;;;;;;;;;;;;;;;13.66;58.24;101685.31;5014863;28;1906;-32
2022/02/28 07:25:56;;;;;;;;;;;;;;;13.69;58.27;101683.34;5014907;28;1158;-32
2022/02/28 07:28:23;;;;;;;;;;;;;;;13.65;58.73;101686.25;5014828;28;1094;-32
2022/02/28 07:30:50;;;;;;;;;;;;;;;13.67;57.86;101690.56;5014780;28;1063;-32
2022/02/28 07:33:17;;;;;;;;;;;;;;;13.65;58.42;101680.94;5014691;28;1096;-32
2022/02/28 07:35:43;;;;;;;;;;;;;;;13.68;57.95;101686.94;5014331;28;1127;-32
2022/02/28 07:38:10;;;;;;;;;;;;;;;13.68;58.11;101688.75;5014400;28;1258;-32
2022/02/28 07:40:36;;;;;;;;;;;;;;;13.65;58.00;101702.22;5014270;28;1163;-33
2022/02/28 07:43:03;;;;;;;;;;;;;;;13.66;57.73;101690.63;5014194;28;1971;-32
2022/02/28 07:45:30;;;;;;;;;;;;;;;13.68;57.79;101700.22;5014784;28;1016;-33
2022/02/28 07:47:58;;;;;;;;;;;;;;;13.70;57.86;101689.53;5014224;28;1152;-32
2022/02/28 07:50:25;;;;;;;;;;;;;;;13.71;57.62;101691.25;5014412;28;1084;-32
2022/02/28 07:52:51;;;;;;;;;;;;;;;13.71;58.17;101702.75;5014091;28;1146;-32
2022/02/28 07:55:18;;;;;;;;;;;;;;;13.71;57.91;101704.56;5014377;28;1099;-32
2022/02/28 07:57:44;;;;;;;;;;;;;;;13.66;58.17;101699.44;5014057;28;1096;-32
2022/02/28 08:00:11;;;;;;;;;;;;;;;13.70;57.70;101710.78;5014032;28;1108;-32
2022/02/28 08:02:38;;;;;;;;;;;;;;;13.68;57.97;101702.88;5013324;28;1478;-32
2022/02/28 08:05:06;;;;;;;;;;;;;;;13.68;58.14;101708.22;5013460;28;1967;-32
2022/02/28 08:07:33;;;;;;;;;;;;;;;13.70;58.06;101714.31;5014198;28;1070;-32
2022/02/28 08:09:59;;;;;;;;;;;;;;;13.67;58.03;101716.28;5013868;28;1341;-32
2022/02/28 08:12:25;;;;;;;;;;;;;;;13.70;57.64;101721.44;5013874;28;1084;-32
2022/02/28 08:14:52;;;;;;;;;;;;;;;13.72;57.68;101728.38;5013759;28;1064;-32
2022/02/28 08:17:18;;;;;;;;;;;;;;;13.69;57.99;101717.06;5013714;28;1108;-32
2022/02/28 08:19:45;;;;;;;;;;;;;;;13.70;57.87;101732.91;5014099;28;999;-32
2022/02/28 08:22:13;;;;;;;;;;;;;;;13.71;57.81;101726.66;5014034;28;1098;-32
2022/02/28 08:24:39;;;;;;;;;;;;;;;13.71;57.96;101723.16;5013624;28;1882;-33
2022/02/28 08:27:06;;;;;;;;;;;;;;;13.71;58.08;101739.09;5013972;28;1102;-32
2022/02/28 08:29:32;;;;;;;;;;;;;;;13.67;58.12;101729.56;5013701;28;1100;-32
2022/02/28 08:31:59;;;;;;;;;;;;;;;13.69;58.18;101740.97;5013955;28;1055;-32
2022/02/28 08:34:25;;;;;;;;;;;;;;;13.67;57.48;101732.22;5014150;28;1007;-32
2022/02/28 08:36:52;;;;;;;;;;;;;;;13.67;57.93;101727.75;5013895;28;1135;-32
2022/02/28 08:39:20;;;;;;;;;;;;;;;13.68;57.66;101744.56;5013925;28;1066;-32
2022/02/28 08:41:46;;;;;;;;;;;;;;;13.66;57.90;101736.66;5013511;28;1115;-33
2022/02/28 08:44:12;;;;;;;;;;;;;;;13.65;58.53;101732.31;5013774;28;1977;-32
2022/02/28 08:46:39;;;;;;;;;;;;;;;13.72;57.63;101736.34;5013802;28;1069;-33
2022/02/28 08:49:06;;;;;;;;;;;;;;;13.70;57.73;101726.75;5014006;28;1052;-32
2022/02/28 08:51:33;;;;;;;;;;;;;;;13.70;58.14;101737.38;5013469;28;1158;-32
2022/02/28 08:53:59;;;;;;;;;;;;;;;13.69;57.73;101740.97;5013642;28;1086;-32
2022/02/28 08:56:27;;;;;;;;;;;;;;;13.70;57.70;101740.03;5013924;28;1003;-32
2022/02/28 08:58:53;;;;;;;;;;;;;;;13.71;57.56;101745.28;5013719;28;1007;-32
2022/02/28 09:01:20;;;;;;;;;;;;;;;13.71;57.50;101757.72;5013576;28;1376;-32
2022/02/28 09:03:46;;;;;;;;;;;;;;;13.76;58.33;101755.66;5013014;28;1910;-32
2022/02/28 09:06:13;;;;;;;;;;;;;;;13.71;57.76;101750.59;5013523;28;1158;-32
2022/02/28 09:08:39;;;;;;;;;;;;;;;13.72;57.58;101754.09;5013591;28;1086;-32
2022/02/28 09:11:06;;;;;;;;;;;;;;;13.75;57.84;101771.69;5013582;28;1028;-32
2022/02/28 09:13:34;;;;;;;;;;;;;;;13.71;57.73;101781.63;5013568;28;1003;-32
2022/02/28 09:16:01;;;;;;;;;;;;;;;13.68;57.83;101766.69;5016269;28;1074;-32
2022/02/28 09:18:27;;;;;;;;;;;;;;;13.71;58.24;101785.16;5017609;28;1066;-32
2022/02/28 09:20:53;;;;;;;;;;;;;;;13.72;57.31;101762.94;5017261;28;999;-32
2022/02/28 09:23:20;;;;;;;;;;;;;;;13.76;58.34;101778.75;5017096;28;1906;-32
2022/02/28 09:25:46;;;;;;;;;;;;;;;13.75;57.69;101769.03;5016826;28;1103;-32
2022/02/28 09:28:13;;;;;;;;;;;;;;;13.72;57.54;101764.75;5016778;28;1104;-32
2022/02/28 09:30:41;;;;;;;;;;;;;;;13.68;57.84;101768.50;5016643;28;1176;-32
2022/02/28 09:33:07;;;;;;;;;;;;;;;13.71;57.85;101763.03;5017398;28;1046;-32
2022/02/28 09:35:34;;;;;;;;;;;;;;;13.73;57.71;101766.47;5016927;28;1008;-32
2022/02/28 09:38:00;;;;;;;;;;;;;;;13.71;57.74;101760.38;5016912;28;1078;-32
2022/02/28 09:40:27;;;;;;;;;;;;;;;13.76;57.65;101768.09;5016574;28;1111;-32
2022/02/28 09:42:55;;;;;;;;;;;;;;;13.70;57.84;101748.84;5016474;28;1087;-33
2022/02/28 09:45:22;;;;;;;;;;;;;;;13.73;57.62;101758.50;5016900;28;1977;-32
2022/02/28 09:47:50;;;;;;;;;;;;;;;13.73;57.60;101753.19;5016414;28;1287;-33
2022/02/28 09:50:17;;;;;;;;;;;;;;;13.73;57.61;101746.06;5016702;28;1208;-32
2022/02/28 09:52:43;;;;;;;;;;;;;;;13.71;57.68;101739.09;5016305;28;1112;-32
2022/02/28 09:55:12;;;;;;;;;;;;;;;13.72;57.79;101764.75;5016220;28;1088;-32
2022/02/28 09:57:44;;;;;;;;;;;;;;;13.71;58.23;101763.03;5016844;28;1051;-32
2022/02/28 10:00:13;;;;;;;;;;;;;;;13.69;58.30;101757.78;5016734;28;1051;-32
2022/02/28 10:02:40;;;;;;;;;;;;;;;13.70;57.64;101750.66;5015805;28;1418;-32
2022/02/28 10:05:08;;;;;;;;;;;;;;;13.65;57.69;101747.41;5016075;28;1906;-32
2022/02/28 10:07:34;;;;;;;;;;;;;;;13.65;58.10;101734.97;5016320;28;1105;-32
2022/02/28 10:10:09;;;;;;;;;;;;;;;13.69;57.69;101754.28;5016275;28;1086;-32
2022/02/28 10:12:36;;;;;;;;;;;;;;;13.66;58.37;101749.09;5016237;28;1097;-32
2022/02/28 10:15:04;;;;;;;;;;;;;;;13.69;57.72;101733.00;5016205;28;1006;-32
2022/02/28 10:17:40;;;;;;;;;;;;;;;13.70;58.02;101751.50;5015835;28;1088;-32
2022/02/28 10:20:15;;;;;;;;;;;;;;;13.72;58.24;101735.50;5016116;28;1072;-32
2022/02/28 10:22:41;;;;;;;;;;;;;;;13.72;57.62;101738.16;5016073;28;1000;-33
2022/02/28 10:25:08;;;;;;;;;;;;;;;13.69;57.48;101725.03;5015652;28;1906;-32
2022/02/28 10:27:35;;;;;;;;;;;;;;;13.69;58.07;101725.03;5015139;28;1083;-33
2022/02/28 10:30:01;;;;;;;;;;;;;;;13.72;57.54;101740.81;5015984;28;1078;-32
2022/02/28 10:32:28;;;;;;;;;;;;;;;13.70;57.44;101727.59;5016152;28;1082;-32
2022/02/28 10:37:45;;;;;;;;;;;;;;;13.69;57.70;101730.34;5015828;28;683;-33
2022/02/28 10:40:12;;;;;;;;;;;;;;;13.72;57.60;101724.88;5015427;28;1088;-32
2022/02/28 10:42:44;;;;;;;;;;;;;;;13.70;58.16;101740.03;5015346;28;1155;-32
2022/02/28 10:45:17;;;;;;;;;;;;;;;13.67;58.25;101740.19;5015804;28;1981;-32
2022/02/28 10:47:45;;;;;;;;;;;;;;;13.64;57.75;101732.38;5015604;28;1082;-32
2022/02/28 10:50:11;;;;;;;;;;;;;;;13.64;57.73;101727.06;5015296;28;1100;-33
2022/02/28 10:52:53;;;;;;;;;;;;;;;13.63;58.35;101730.66;5015142;28;1251;-33
2022/02/28 10:55:31;;;;;;;;;;;;;;;13.68;57.83;101734.78;5015390;28;1076;-32
2022/02/28 10:58:05;;;;;;;;;;;;;;;13.65;57.49;101731.44;5015388;28;1000;-32
2022/02/28 11:00:31;;;;;;;;;;;;;;;13.66;57.60;101746.44;5015118;28;1147;-33
2022/02/28 11:03:03;;;;;;;;;;;;;;;13.66;58.19;101741.13;5014669;28;1415;-32
2022/02/28 11:05:29;;;;;;;;;;;;;;;13.63;57.90;101723.53;5015159;28;1973;-32
2022/02/28 11:07:58;;;;;;;;;;;;;;;13.60;58.15;101736.13;5015089;28;1068;-32
2022/02/28 11:10:25;;;;;;;;;;;;;;;13.65;57.99;101739.41;5015190;28;1085;-32
2022/02/28 11:12:52;;;;;;;;;;;;;;;13.63;58.40;101725.34;5015166;28;1090;-32
2022/02/28 11:15:21;;;;;;;;;;;;;;;13.62;58.06;101735.09;5015107;28;1065;-32
2022/02/28 11:17:48;;;;;;;;;;;;;;;13.66;57.70;101738.47;5015088;28;1006;-33
2022/02/28 11:20:16;;;;;;;;;;;;;;;13.64;58.18;101733.22;5014764;28;1056;-33
2022/02/28 11:22:44;;;;;;;;;;;;;;;13.67;57.78;101735.75;5014634;28;1092;-32
2022/02/28 11:25:11;;;;;;;;;;;;;;;13.63;57.69;101749.28;5015245;28;1975;-32
2022/02/28 11:27:38;;;;;;;;;;;;;;;13.65;57.88;101739.41;5014905;28;959;-32
2022/02/28 11:30:08;;;;;;;;;;;;;;;13.64;58.23;101748.31;5014490;28;1088;-32
2022/02/28 11:32:35;;;;;;;;;;;;;;;13.61;58.13;101745.78;5014767;28;1011;-32
2022/02/28 11:35:19;;;;;;;;;;;;;;;13.58;57.78;101740.66;5014644;28;1028;-32
2022/02/28 11:37:46;;;;;;;;;;;;;;;13.60;57.84;101752.06;5014836;28;996;-32
2022/02/28 11:40:12;;;;;;;;;;;;;;;13.62;57.82;101755.50;5014696;28;1249;-32
2022/02/28 11:42:57;;;;;;;;;;;;;;;13.62;57.87;101755.50;5014247;28;1089;-32
2022/02/28 11:45:25;;;;;;;;;;;;;;;13.56;58.38;101739.88;5014504;28;1977;-32
2022/02/28 11:48:06;;;;;;;;;;;;;;;13.61;58.26;101756.44;5014528;28;1051;-32
2022/02/28 11:50:48;;;;;;;;;;;;;;;13.61;58.25;101753.78;5014117;28;1788;-32
2022/02/28 11:53:15;;;;;;;;;;;;;;;13.62;57.95;101766.13;5014363;28;1073;-32
2022/02/28 11:55:41;;;;;;;;;;;;;;;13.61;57.92;101767.06;5014095;28;1096;-32
2022/02/28 11:58:14;;;;;;;;;;;;;;;13.63;57.91;101762.56;5014090;28;1080;-32
2022/02/28 12:00:45;;;;;;;;;;;;;;;13.61;57.83;101753.78;5014360;28;1075;-32
2022/02/28 12:03:29;;;;;;;;;;;;;;;13.61;57.96;101761.75;5013612;28;1466;-32
2022/02/28 12:05:55;;;;;;;;;;;;;;;13.62;57.61;101758.16;5014083;28;1973;-32
2022/02/28 12:08:33;;;;;;;;;;;;;;;13.59;58.32;101751.22;5014446;28;1085;-32
2022/02/28 12:11:16;;;;;;;;;;;;;;;13.63;57.75;101746.63;5014184;28;1045;-32
2022/02/28 12:13:42;;;;;;;;;;;;;;;13.62;58.06;101755.50;5013787;28;1084;-32
2022/02/28 12:17:30;;;;;;;;;;;;;;;13.62;57.77;101761.69;5013847;28;1135;-32
2022/02/28 12:19:11;;;;;;;;;;;;;;;13.62;57.79;101763.47;5013768;28;910;-32
2022/02/28 12:21:38;;;;;;;;;;;;;;;13.62;57.55;101750.19;5014098;28;1078;-33
2022/02/28 12:24:04;;;;;;;;;;;;;;;13.56;58.43;101761.97;5014249;28;1069;-32
2022/02/28 12:26:31;;;;;;;;;;;;;;;13.58;57.90;101759.25;5013632;28;1971;-32
2022/02/28 12:28:57;;;;;;;;;;;;;;;13.57;57.74;101757.53;5014006;28;1267;-32
2022/02/28 12:31:36;;;;;;;;;;;;;;;13.58;57.73;101764.56;5013889;28;1003;-32
2022/02/28 12:34:05;;;;;;;;;;;;;;;13.58;58.26;101756.59;5013643;28;1128;-32
2022/02/28 12:36:33;;;;;;;;;;;;;;;13.59;58.51;101774.25;5014182;28;1004;-32
2022/02/28 12:39:00;;;;;;;;;;;;;;;13.59;57.88;101756.53;5014137;28;1037;-32
2022/02/28 12:41:28;;;;;;;;;;;;;;;13.59;58.52;101768.94;5013509;28;1155;-32
2022/02/28 12:43:56;;;;;;;;;;;;;;;13.55;58.42;101757.63;5013573;28;1107;-32
2022/02/28 12:46:23;;;;;;;;;;;;;;;13.56;58.37;101754.00;5013736;28;1910;-32
2022/02/28 12:48:52;;;;;;;;;;;;;;;13.58;58.06;101767.22;5013795;28;1020;-32
2022/02/28 12:51:20;;;;;;;;;;;;;;;13.59;57.90;101771.59;5017574;28;1075;-32